Station: EHBK - 24/07/2021 05:25Z (il y a 17 minutes)
EHBK 240525Z AUTO 08006KT 9999 NSC 17/14 Q1009 NOSIG
Vent du 080º - 6 kt
Visibilité > 10 km
Pas de nuages significatifs
Température: +17ºC - Point de rosée: +14ºC - QNH: 1009 hPa
Pas de changement significatif prévu dans les 2 heures qui suivent l'observation